Aérodrome :
LOGIN :

S'inscrire | Disclaimer

   EN    FR    IT 

 










Légende :    VFR   VFR Marginal   IFR   IFR Intensif   IFR Très Intensif
Visi : 
Plafond : 
>= 8 km
>= 3000ft
5 à 8 km
1000 à 3000 ft
1500m à 5 km
500 à 1000 ft
800 à 1500m
200 à 500 ft
< 800m
< 200 ft
Symboles :   Orages  Brouillard  Fortes neiges  Fortes précipitations  Vent > 20 kt
SIGMETs :   Divers  Orages  Givrage  Turbulence  Onde Orograph.  Cendres Volcan.






- Altitude de l'aérodrome : 919 ft
- Code IATA : IFO


UKLI - Ivano Frankivs'k

DERNIER METAR :
  • 151330Z 29004MPS 240V340 9999 SCT046 M04/M11 Q1014 R28/490530 NOSIG

METARs EXPIRÉS :
  • 151300Z 30005MPS 260V340 9999 SCT043 M05/M12 Q1014 R28/490530 NOSIG
  • 151230Z 30005MPS 260V330 9999 FEW023CB BKN030 M05/M11 Q1014 R28/490530 TEMPO 1100 SHSN BKN005 BKN010CB
  • 151200Z 29005MPS 9999 -SHSN BKN020CB BKN030 M06/M10 Q1014 R28/490530 TEMPO 1100 SHSN BKN005 BKN010CB
  • 151130Z 30005MPS 250V340 9999 -SHSN BKN018CB BKN030 M05/M10 Q1014 R28/490530 NOSIG
  • 151100Z 30004MPS 260V360 9999 SCT020CB BKN030 M05/M10 Q1014 R28/490530 NOSIG

TAF TAF UKLI
Valide du 15 à 12h jusqu'au 15 à 21h UTC


151106Z 1512/1521 29005MPS 3000 -SHSN BR BKN007 BKN015CB TXM05/1512Z TNM09/1521Z
TEMPO 1512/1516 1100 SHSN BKN005 BKN1010CB



MET'MAP, la Météo Aéronautique d'un coup d'oeil ! - Copyright ORBIFLY Décembre 2007 - Disclaimer

ORBIFLY MET'MAP TEAM :

Programmation & Développement : Alexandra Zaïnal
Sur une idée originale de : Baudouin d'Aumeries
Assistance à la programmation : Marc-Olivier Méhu
Soutien technique & logistique : Manuel Goepfert

Contact : metmap@orbifly.com




SOURCES & CREDITS :

   NOAA